Historique des mesures à Cassis (13260), France
Quotidien Résumé Janvier 8, 2017 Unités:  Métrique    US   Métrique/US
« Précédent (Jour)
Suivant (Jour) »
Quotidien Hebdomadaire Mensuel Annuel Période au choix
  Maximum: Minimum: Moyenne:
Température: TemperatureC °C 3.4 °C 5.6 °C
Point de rosée: DewpointC °C -4.6 °C -1.6 °C
Humidité: Humidity % 53 % 57 %
Vitesse du vent: 0 km/h 0 km/h 1.8 km/h
Rafales: 0 km/h - -
Vent:- - WSW
Pression: PressurehPa hPa 1016.5 hPa -
Précipitations: 0.0 mm    
Historical Graphs
 
 
Mesures pour : Janvier 8, 2017
Heure Temperature Point de rosée Pression Vent Vitesse du vent Rafales Humidité Pluie (par heure) Conditions
TemperatureC °C DewpointC °C PressurehPa hPa Calm     Humidity % HourlyPrecipMM mm SoftwareType W/m2
00:11 4.3 °C -3.3 °C 1022.2 hPa Calm   4.7 km/h 58 % 0.0 mm open2300-1.11 W/m2
01:10 3.9 °C -3.4 °C 1021.9 hPa Calm   5.1 km/h 59 % 0.0 mm open2300-1.11 W/m2
02:11 4.1 °C -2.8 °C 1021.2 hPa Calm   5.6 km/h 61 % 0.0 mm open2300-1.11 W/m2
03:10 3.9 °C -3.0 °C 1021.2 hPa Calm   8 km/h 61 % 0.0 mm open2300-1.11 W/m2
04:11 3.9 °C -3.4 °C 1020.5 hPa Calm   9.3 km/h 59 % 0.0 mm open2300-1.11 W/m2
05:10 3.6 °C -3.9 °C 1019.9 hPa NE 2.9 km/h 3.4 km/h 58 % 0.0 mm open2300-1.11 W/m2
06:11 3.4 °C -3.9 °C 1019.5 hPa Calm     59 % 0.0 mm open2300-1.11 W/m2
07:10 4.2 °C -4.4 °C 1019.2 hPa NNW 4.2 km/h 4.2 km/h 54 % 0.0 mm open2300-1.11 W/m2
08:11 4.2 °C -4.6 °C 1018.8 hPa Calm   3.4 km/h 53 % 0.0 mm open2300-1.11 W/m2
09:10 4.5 °C -4.1 °C 1018.5 hPa Calm     54 % 0.0 mm open2300-1.11 W/m2
10:11 5.4 °C -3.2 °C 1018.2 hPa Calm   9.3 km/h 54 % 0.0 mm open2300-1.11 W/m2
11:10 6.1 °C -2.1 °C 1018.2 hPa Calm   5.6 km/h 56 % 0.0 mm open2300-1.11 W/m2
12:11 7.1 °C -0.3 °C 1017.8 hPa WNW 23.8 km/h 23.8 km/h 59 % 0.0 mm open2300-1.11 W/m2
13:10 8.3 °C 0.7 °C 1016.8 hPa Calm   11.6 km/h 59 % 0.0 mm open2300-1.11 W/m2
14:11 9.6 °C 1.5 °C 1016.5 hPa NNW 13.2 km/h 14 km/h 57 % 0.0 mm open2300-1.11 W/m2
16:11 9.3 °C 1.2 °C 1016.8 hPa Calm   9.8 km/h 57 % 0.0 mm open2300-1.11 W/m2
17:10 8.4 °C 0.6 °C 1017.2 hPa Calm   19.2 km/h 58 % 0.0 mm open2300-1.11 W/m2
18:11 7.1 °C 0.3 °C 1017.8 hPa Calm   6.4 km/h 62 % 0.0 mm open2300-1.11 W/m2
19:10 6.7 °C 0.1 °C 1018.2 hPa Calm     64 % 0.0 mm open2300-1.11 W/m2
20:11 6.5 °C 0.2 °C 1018.5 hPa Calm     64 % 0.0 mm open2300-1.11 W/m2
21:10 6.5 °C 0.2 °C 1018.8 hPa Calm     64 % 0.0 mm open2300-1.11 W/m2
22:11 6.2 °C 0.1 °C 1019.9 hPa Calm     65 % 0.0 mm open2300-1.11 W/m2
23:10 6.4 °C 0.1 °C 1020.2 hPa Calm   13.2 km/h 64 % 0.0 mm open2300-1.11 W/m2
Observations météo à CASSIS
WU-History script by Weather Underground - 1 mb